Time;durP1;ratioP1;P1;durP2;ratioP2;P2;SDS_P1;SDS_P2;PMS_P1;PMS_P2;Temp;Humidity;BMP_temperature;BMP_pressure;BME280_temperature;BME280_humidity;BME280_pressure;Samples;Min_cycle;Max_cycle;Signal;HPM_P1;HPM_P2
2024/01/30 00:00:35;;;;;;;44.10;41.05;;;;;;;;;;4215778;28;20298;-57
2024/01/30 00:02:37;;;;;;;44.83;42.25;;;;;;;;;;4215616;28;20036;-57
2024/01/30 00:04:38;;;;;;;46.67;44.40;;;;;;;;;;4215529;28;20051;-56
2024/01/30 00:06:40;;;;;;;44.53;42.23;;;;;;;;;;4215537;28;20036;-57
2024/01/30 00:08:42;;;;;;;46.10;43.47;;;;;;;;;;4210388;28;20294;-58
2024/01/30 00:10:43;;;;;;;50.33;47.22;;;;;;;;;;4214164;28;20032;-57
2024/01/30 00:12:45;;;;;;;51.40;48.35;;;;;;;;;;4215619;28;20036;-57
2024/01/30 00:14:47;;;;;;;50.83;47.45;;;;;;;;;;4215557;28;20071;-56
2024/01/30 00:16:50;;;;;;;51.97;48.53;;;;;;;;;;4215404;28;20040;-57
2024/01/30 00:18:52;;;;;;;51.10;47.80;;;;;;;;;;4211226;28;20072;-57
2024/01/30 00:20:54;;;;;;;52.53;49.22;;;;;;;;;;4197129;28;20546;-57
2024/01/30 00:22:56;;;;;;;50.63;47.67;;;;;;;;;;4198666;28;20044;-58
2024/01/30 00:24:57;;;;;;;54.60;51.17;;;;;;;;;;4198619;28;20038;-57
2024/01/30 00:26:59;;;;;;;52.00;48.80;;;;;;;;;;4198475;28;20045;-57
2024/01/30 00:29:04;;;;;;;56.08;52.42;;;;;;;;;;4198525;28;20071;-57
2024/01/30 00:31:05;;;;;;;56.40;52.77;;;;;;;;;;4198651;28;20041;-59
2024/01/30 00:33:08;;;;;;;55.10;51.63;;;;;;;;;;4198507;28;20076;-58
2024/01/30 00:35:10;;;;;;;51.83;48.45;;;;;;;;;;4198436;28;20336;-58
2024/01/30 00:37:12;;;;;;;51.35;48.38;;;;;;;;;;4198452;28;20123;-59
2024/01/30 00:39:19;;;;;;;48.88;45.97;;;;;;;;;;4198054;28;20064;-59
2024/01/30 00:41:21;;;;;;;51.65;48.63;;;;;;;;;;4198436;28;20450;-59
2024/01/30 00:43:24;;;;;;;57.25;53.20;;;;;;;;;;4198266;28;20044;-58
2024/01/30 00:45:26;;;;;;;58.67;54.70;;;;;;;;;;4198322;28;20098;-58
2024/01/30 00:47:29;;;;;;;62.75;58.13;;;;;;;;;;4213105;28;20032;-59
2024/01/30 00:49:33;;;;;;;59.70;54.95;;;;;;;;;;4214587;28;20039;-58
2024/01/30 00:51:36;;;;;;;57.97;53.58;;;;;;;;;;4214828;28;20036;-58
2024/01/30 00:53:38;;;;;;;54.25;50.85;;;;;;;;;;4214736;28;20036;-59
2024/01/30 00:55:39;;;;;;;53.75;50.40;;;;;;;;;;4214682;28;20075;-58
2024/01/30 00:57:41;;;;;;;52.42;49.33;;;;;;;;;;4214449;28;20480;-57
2024/01/30 00:59:45;;;;;;;53.03;49.90;;;;;;;;;;4214640;28;20075;-58
2024/01/30 01:01:47;;;;;;;55.17;51.25;;;;;;;;;;4214678;28;20036;-58
2024/01/30 01:03:49;;;;;;;54.25;50.83;;;;;;;;;;4214597;28;20051;-59
2024/01/30 01:05:51;;;;;;;57.55;53.63;;;;;;;;;;4214610;28;20089;-58
2024/01/30 01:07:53;;;;;;;58.10;54.10;;;;;;;;;;4213626;28;20036;-58
2024/01/30 01:09:57;;;;;;;55.58;52.35;;;;;;;;;;4214348;28;20043;-59
2024/01/30 01:11:59;;;;;;;48.90;45.63;;;;;;;;;;4214547;28;20067;-59
2024/01/30 01:14:00;;;;;;;53.90;50.47;;;;;;;;;;4214443;28;20036;-59
2024/01/30 01:16:02;;;;;;;52.45;49.22;;;;;;;;;;4210926;28;20032;-59
2024/01/30 01:18:05;;;;;;;58.42;54.47;;;;;;;;;;4197572;28;20051;-59
2024/01/30 01:20:07;;;;;;;60.78;56.10;;;;;;;;;;4197775;28;20435;-59
2024/01/30 01:22:09;;;;;;;63.78;58.63;;;;;;;;;;4197629;28;20041;-59
2024/01/30 01:24:11;;;;;;;58.60;54.22;;;;;;;;;;4197647;28;20503;-58
2024/01/30 01:26:13;;;;;;;58.17;53.97;;;;;;;;;;4197750;28;20385;-59
2024/01/30 01:28:14;;;;;;;54.03;50.42;;;;;;;;;;4197389;28;20045;-59
2024/01/30 01:30:21;;;;;;;55.55;51.72;;;;;;;;;;4197437;28;20038;-59
2024/01/30 01:32:23;;;;;;;60.35;56.00;;;;;;;;;;4197318;28;20040;-58
2024/01/30 01:34:24;;;;;;;61.97;57.28;;;;;;;;;;4197590;28;20443;-59
2024/01/30 01:36:31;;;;;;;61.75;57.17;;;;;;;;;;4197375;28;20048;-59
2024/01/30 01:38:32;;;;;;;58.75;54.45;;;;;;;;;;4196156;28;20082;-59
2024/01/30 01:40:34;;;;;;;61.03;56.65;;;;;;;;;;4179527;28;20045;-58
2024/01/30 01:42:36;;;;;;;59.03;54.80;;;;;;;;;;4197423;28;20543;-59
2024/01/30 01:44:37;;;;;;;59.03;54.90;;;;;;;;;;4197245;28;20401;-58
2024/01/30 01:46:39;;;;;;;54.67;51.05;;;;;;;;;;4205574;28;20701;-59
2024/01/30 01:48:42;;;;;;;57.75;53.55;;;;;;;;;;4213912;28;20036;-59
2024/01/30 01:50:44;;;;;;;60.38;56.08;;;;;;;;;;4213662;28;20067;-59
2024/01/30 01:52:49;;;;;;;56.30;52.20;;;;;;;;;;4213660;28;20055;-59
2024/01/30 01:54:50;;;;;;;57.53;53.35;;;;;;;;;;4213857;28;20090;-58
2024/01/30 01:56:53;;;;;;;57.03;53.22;;;;;;;;;;4213911;28;20407;-58
2024/01/30 01:58:59;;;;;;;54.38;51.03;;;;;;;;;;4197296;28;20041;-59
2024/01/30 02:01:01;;;;;;;58.88;54.97;;;;;;;;;;4197035;28;20044;-59
2024/01/30 02:03:04;;;;;;;60.90;56.58;;;;;;;;;;4197261;28;20079;-59
2024/01/30 02:05:08;;;;;;;59.10;55.30;;;;;;;;;;4197077;28;20535;-59
2024/01/30 02:07:10;;;;;;;60.55;56.33;;;;;;;;;;4197188;28;20416;-58
2024/01/30 02:09:12;;;;;;;61.08;56.17;;;;;;;;;;4195845;28;20567;-59
2024/01/30 02:11:13;;;;;;;60.75;56.60;;;;;;;;;;4197001;28;20040;-57
2024/01/30 02:13:15;;;;;;;57.20;53.05;;;;;;;;;;4196631;28;20064;-58
2024/01/30 02:15:18;;;;;;;60.00;55.13;;;;;;;;;;4197216;28;20436;-59
2024/01/30 02:17:19;;;;;;;60.40;56.03;;;;;;;;;;4196888;28;20051;-59
2024/01/30 02:19:21;;;;;;;67.25;61.92;;;;;;;;;;4196890;28;20578;-59
2024/01/30 02:21:23;;;;;;;64.93;59.20;;;;;;;;;;4198350;28;20055;-59
2024/01/30 02:23:25;;;;;;;64.55;59.35;;;;;;;;;;4200452;28;20040;-58
2024/01/30 02:25:33;;;;;;;61.45;56.42;;;;;;;;;;4199102;28;20033;-59
2024/01/30 02:27:35;;;;;;;58.20;54.15;;;;;;;;;;4200379;28;20036;-59
2024/01/30 02:29:37;;;;;;;59.78;55.80;;;;;;;;;;4200334;28;20043;-59
2024/01/30 02:31:39;;;;;;;56.38;52.60;;;;;;;;;;4200188;28;20043;-59
2024/01/30 02:33:40;;;;;;;55.50;51.80;;;;;;;;;;4200304;28;20075;-59
2024/01/30 02:35:42;;;;;;;53.30;49.83;;;;;;;;;;4200185;28;20110;-59
2024/01/30 02:37:44;;;;;;;57.80;53.85;;;;;;;;;;4200122;28;20040;-59
2024/01/30 02:39:45;;;;;;;53.55;49.92;;;;;;;;;;4200026;28;20060;-58
2024/01/30 02:41:47;;;;;;;54.13;50.47;;;;;;;;;;4200267;28;20036;-58
2024/01/30 02:43:49;;;;;;;50.20;46.92;;;;;;;;;;4200106;28;20102;-59
2024/01/30 02:45:50;;;;;;;51.28;47.60;;;;;;;;;;4200129;28;20523;-59
2024/01/30 02:47:52;;;;;;;53.85;50.20;;;;;;;;;;4216789;28;20044;-58
2024/01/30 02:49:54;;;;;;;57.28;53.42;;;;;;;;;;4216541;28;20533;-59
2024/01/30 02:51:57;;;;;;;55.17;51.67;;;;;;;;;;4217078;28;20036;-59
2024/01/30 02:53:59;;;;;;;60.92;56.50;;;;;;;;;;4216651;28;20043;-59
2024/01/30 02:56:01;;;;;;;58.93;54.43;;;;;;;;;;4216648;28;20097;-58
2024/01/30 02:58:03;;;;;;;57.03;52.88;;;;;;;;;;4216322;28;20044;-59
2024/01/30 03:00:06;;;;;;;54.63;51.10;;;;;;;;;;4216925;28;20048;-59
2024/01/30 03:02:07;;;;;;;;;;;;;;;;;;4215860;28;20067;-59
2024/01/30 03:04:10;;;;;;;56.83;53.50;;;;;;;;;;4216566;28;19920;-59
2024/01/30 03:06:11;;;;;;;55.15;51.92;;;;;;;;;;4215436;28;20048;-59
2024/01/30 03:08:13;;;;;;;59.33;55.35;;;;;;;;;;4214308;28;20143;-59
2024/01/30 03:10:15;;;;;;;56.38;53.03;;;;;;;;;;4199982;28;20036;-59
2024/01/30 03:12:17;;;;;;;60.83;56.88;;;;;;;;;;4199544;28;20036;-59
2024/01/30 03:14:18;;;;;;;58.60;55.00;;;;;;;;;;4200047;28;20086;-59
2024/01/30 03:16:20;;;;;;;58.70;54.63;;;;;;;;;;4199839;28;20147;-59
2024/01/30 03:18:22;;;;;;;57.50;53.67;;;;;;;;;;4199714;28;20120;-59
2024/01/30 03:20:24;;;;;;;54.20;50.80;;;;;;;;;;4199566;28;20068;-59
2024/01/30 03:22:26;;;;;;;55.20;51.90;;;;;;;;;;4199209;28;20094;-58
2024/01/30 03:24:28;;;;;;;;;;;;;;;;;;4199087;28;20048;-59
2024/01/30 03:26:30;;;;;;;58.75;55.25;;;;;;;;;;4196554;28;20005;-57
2024/01/30 03:28:32;;;;;;;59.07;55.53;;;;;;;;;;4198071;28;20044;-58
2024/01/30 03:30:34;;;;;;;57.08;53.38;;;;;;;;;;4197832;28;20279;-59
2024/01/30 03:32:36;;;;;;;55.47;51.78;;;;;;;;;;4198075;28;20040;-59
2024/01/30 03:34:37;;;;;;;59.15;55.50;;;;;;;;;;4198163;28;20041;-58
2024/01/30 03:36:39;;;;;;;58.45;54.97;;;;;;;;;;4198067;28;20531;-59
2024/01/30 03:38:41;;;;;;;58.92;55.83;;;;;;;;;;4197795;28;20136;-58
2024/01/30 03:40:43;;;;;;;53.97;50.88;;;;;;;;;;4198848;28;20041;-59
2024/01/30 03:42:45;;;;;;;55.10;52.35;;;;;;;;;;4199010;28;20043;-58
2024/01/30 03:44:47;;;;;;;51.13;49.00;;;;;;;;;;4199121;28;20389;-59
2024/01/30 03:46:48;;;;;;;50.83;48.53;;;;;;;;;;4208909;28;20047;-59
2024/01/30 03:48:50;;;;;;;51.17;48.83;;;;;;;;;;4215987;28;20420;-59
2024/01/30 03:50:52;;;;;;;50.85;48.55;;;;;;;;;;4215611;28;20032;-59
2024/01/30 03:52:54;;;;;;;53.47;50.78;;;;;;;;;;4215976;28;20036;-59
2024/01/30 03:54:55;;;;;;;55.10;52.47;;;;;;;;;;4216267;28;20040;-59
2024/01/30 03:56:57;;;;;;;53.35;49.88;;;;;;;;;;4215749;28;20032;-59
2024/01/30 03:59:02;;;;;;;48.72;46.75;;;;;;;;;;4214409;28;20422;-58
2024/01/30 04:01:04;;;;;;;49.90;47.00;;;;;;;;;;4215928;28;20070;-59
2024/01/30 04:03:06;;;;;;;52.70;50.13;;;;;;;;;;4216083;28;20047;-57
2024/01/30 04:05:08;;;;;;;52.83;50.23;;;;;;;;;;4209628;28;20094;-57
2024/01/30 04:07:09;;;;;;;54.38;51.33;;;;;;;;;;4198999;28;20301;-56
2024/01/30 04:09:13;;;;;;;56.33;53.27;;;;;;;;;;4207548;28;20044;-57
2024/01/30 04:11:14;;;;;;;55.13;51.40;;;;;;;;;;4215558;28;20089;-57
2024/01/30 04:13:16;;;;;;;61.08;56.38;;;;;;;;;;4215441;28;20032;-57
2024/01/30 04:15:18;;;;;;;61.90;57.08;;;;;;;;;;4215511;28;20071;-57
2024/01/30 04:17:20;;;;;;;60.07;56.00;;;;;;;;;;4215629;28;20377;-57
2024/01/30 04:19:21;;;;;;;61.10;57.13;;;;;;;;;;4215682;28;20043;-56
2024/01/30 04:21:23;;;;;;;58.57;54.30;;;;;;;;;;4215743;28;20067;-57
2024/01/30 04:23:25;;;;;;;55.50;51.75;;;;;;;;;;4215565;28;20061;-58
2024/01/30 04:25:30;;;;;;;57.80;54.20;;;;;;;;;;4215115;28;20070;-58
2024/01/30 04:27:32;;;;;;;53.33;50.40;;;;;;;;;;4215199;28;20119;-57
2024/01/30 04:29:34;;;;;;;53.58;50.40;;;;;;;;;;4215337;28;20101;-57
2024/01/30 04:31:38;;;;;;;56.00;52.63;;;;;;;;;;4215262;28;20055;-57
2024/01/30 04:33:40;;;;;;;55.05;51.70;;;;;;;;;;4215189;28;20373;-57
2024/01/30 04:35:42;;;;;;;52.83;49.40;;;;;;;;;;4215146;28;20522;-58
2024/01/30 04:37:43;;;;;;;54.87;51.53;;;;;;;;;;4215328;28;20123;-56
2024/01/30 04:39:45;;;;;;;55.37;52.10;;;;;;;;;;4215004;28;20294;-58
2024/01/30 04:41:48;;;;;;;53.90;50.83;;;;;;;;;;4215213;28;20483;-57
2024/01/30 04:43:49;;;;;;;56.78;53.35;;;;;;;;;;4214728;28;20293;-57
2024/01/30 04:45:51;;;;;;;56.97;53.13;;;;;;;;;;4213411;28;20568;-57
2024/01/30 04:47:53;;;;;;;58.05;54.65;;;;;;;;;;4198302;28;20043;-57
2024/01/30 04:49:54;;;;;;;53.73;50.50;;;;;;;;;;4197997;28;20047;-57
2024/01/30 04:51:56;;;;;;;55.10;51.45;;;;;;;;;;4198303;28;20056;-57
2024/01/30 04:53:58;;;;;;;54.78;51.85;;;;;;;;;;4198309;28;20037;-57
2024/01/30 04:56:00;;;;;;;54.47;51.33;;;;;;;;;;4196873;28;20048;-58
2024/01/30 04:58:02;;;;;;;50.77;47.80;;;;;;;;;;4207348;28;20044;-57
2024/01/30 05:00:05;;;;;;;52.97;50.17;;;;;;;;;;4213537;28;20130;-57
2024/01/30 05:02:16;;;;;;;55.85;52.65;;;;;;;;;;4214197;28;20051;-57
2024/01/30 05:04:18;;;;;;;58.67;55.22;;;;;;;;;;4214787;28;20516;-57
2024/01/30 05:06:29;;;;;;;56.95;53.33;;;;;;;;;;4215012;28;20052;-57
2024/01/30 05:08:32;;;;;;;56.97;53.58;;;;;;;;;;4213251;28;20119;-57
2024/01/30 05:10:33;;;;;;;58.97;55.60;;;;;;;;;;4214699;28;20068;-58
2024/01/30 05:12:36;;;;;;;52.72;50.08;;;;;;;;;;4213275;28;20065;-59
2024/01/30 05:14:37;;;;;;;50.58;48.35;;;;;;;;;;4210929;28;20040;-59
2024/01/30 05:16:39;;;;;;;48.35;46.22;;;;;;;;;;4212028;28;20062;-58
2024/01/30 05:18:43;;;;;;;49.37;46.30;;;;;;;;;;4211159;28;20036;-59
2024/01/30 05:20:45;;;;;;;53.22;50.30;;;;;;;;;;4207389;28;20048;-59
2024/01/30 05:22:47;;;;;;;53.93;51.10;;;;;;;;;;4214587;28;20040;-59
2024/01/30 05:24:49;;;;;;;57.50;54.53;;;;;;;;;;4213189;28;20048;-58
2024/01/30 05:26:51;;;;;;;60.17;56.10;;;;;;;;;;4214234;28;20097;-59
2024/01/30 05:28:52;;;;;;;56.67;53.15;;;;;;;;;;4212794;28;20040;-59
2024/01/30 05:30:54;;;;;;;50.60;47.97;;;;;;;;;;4214166;28;20606;-58
2024/01/30 05:32:56;;;;;;;56.63;53.65;;;;;;;;;;4214469;28;20051;-59
2024/01/30 05:34:57;;;;;;;58.38;54.97;;;;;;;;;;4214219;28;20381;-59
2024/01/30 05:36:59;;;;;;;55.70;52.57;;;;;;;;;;4214089;28;20050;-59
2024/01/30 05:39:01;;;;;;;52.63;49.57;;;;;;;;;;4214264;28;20048;-59
2024/01/30 05:41:03;;;;;;;53.65;50.60;;;;;;;;;;4214165;28;20285;-59
2024/01/30 05:43:04;;;;;;;58.35;55.03;;;;;;;;;;4214110;28;20097;-59
2024/01/30 05:45:06;;;;;;;52.47;49.27;;;;;;;;;;4211451;28;20044;-59
2024/01/30 05:47:08;;;;;;;57.67;54.25;;;;;;;;;;4209402;28;20097;-59
2024/01/30 05:49:12;;;;;;;52.97;50.33;;;;;;;;;;4212538;28;20048;-59
2024/01/30 05:51:14;;;;;;;49.75;47.00;;;;;;;;;;4206809;28;20131;-59
2024/01/30 05:53:16;;;;;;;51.80;49.22;;;;;;;;;;4214105;28;20040;-58
2024/01/30 05:55:17;;;;;;;54.03;51.13;;;;;;;;;;4213412;28;20458;-59
2024/01/30 05:57:19;;;;;;;50.83;48.30;;;;;;;;;;4213180;28;20119;-59
2024/01/30 05:59:21;;;;;;;52.35;49.25;;;;;;;;;;4213698;28;20282;-59
2024/01/30 06:01:22;;;;;;;56.17;52.88;;;;;;;;;;4213844;28;20040;-59
2024/01/30 06:03:24;;;;;;;50.40;47.95;;;;;;;;;;4214094;28;20113;-59
2024/01/30 06:05:26;;;;;;;50.33;48.10;;;;;;;;;;4213457;28;20047;-59
2024/01/30 06:07:30;;;;;;;51.30;48.75;;;;;;;;;;4213666;28;20032;-59
2024/01/30 06:09:38;;;;;;;50.05;47.55;;;;;;;;;;4213756;28;20036;-59
2024/01/30 06:11:40;;;;;;;;;;;;;;;;;;4214553;28;20044;-59
2024/01/30 06:13:41;;;;;;;55.05;52.22;;;;;;;;;;4212754;28;20677;-59
2024/01/30 06:15:43;;;;;;;56.65;53.72;;;;;;;;;;4214214;28;20055;-59
2024/01/30 06:17:45;;;;;;;50.43;48.13;;;;;;;;;;4214028;28;20044;-59
2024/01/30 06:19:46;;;;;;;53.33;50.70;;;;;;;;;;4213682;28;20044;-59
2024/01/30 06:21:48;;;;;;;54.93;51.90;;;;;;;;;;4214026;28;20282;-63
2024/01/30 06:23:50;;;;;;;53.90;51.38;;;;;;;;;;4211600;28;20507;-63
2024/01/30 06:25:51;;;;;;;53.77;50.90;;;;;;;;;;4202511;28;20036;-63
2024/01/30 06:27:53;;;;;;;50.80;47.95;;;;;;;;;;4199597;28;20790;-63
2024/01/30 06:29:55;;;;;;;55.72;53.03;;;;;;;;;;4197232;28;20543;-63
2024/01/30 06:31:57;;;;;;;53.15;50.17;;;;;;;;;;4196800;28;20447;-63
2024/01/30 06:33:59;;;;;;;;;;;;;;;;;;4197055;28;20127;-60
2024/01/30 06:36:01;;;;;;;56.83;53.40;;;;;;;;;;4195449;28;20349;-60
2024/01/30 06:38:03;;;;;;;58.47;54.65;;;;;;;;;;4195598;28;20045;-61
2024/01/30 06:40:05;;;;;;;62.30;58.03;;;;;;;;;;4195259;28;20045;-60
2024/01/30 06:42:07;;;;;;;65.88;61.20;;;;;;;;;;4195653;28;20739;-60
2024/01/30 06:44:08;;;;;;;58.45;54.42;;;;;;;;;;4195890;28;20090;-63
2024/01/30 06:46:10;;;;;;;58.60;54.63;;;;;;;;;;4199501;28;20024;-63
2024/01/30 06:48:12;;;;;;;56.97;53.65;;;;;;;;;;4212871;28;20040;-63
2024/01/30 06:50:14;;;;;;;55.40;52.63;;;;;;;;;;4213386;28;20051;-63
2024/01/30 06:52:16;;;;;;;51.10;47.70;;;;;;;;;;4213570;28;20110;-63
2024/01/30 06:54:17;;;;;;;56.73;53.27;;;;;;;;;;4203806;28;20087;-63
2024/01/30 06:56:20;;;;;;;49.05;46.45;;;;;;;;;;4196678;28;20040;-63
2024/01/30 06:58:22;;;;;;;54.30;51.40;;;;;;;;;;4208808;28;20126;-63
2024/01/30 07:00:24;;;;;;;54.97;52.00;;;;;;;;;;4213515;28;20044;-63
2024/01/30 07:02:26;;;;;;;55.80;52.65;;;;;;;;;;4198592;28;20447;-63
2024/01/30 07:04:27;;;;;;;54.35;51.50;;;;;;;;;;4196657;28;20040;-63
2024/01/30 07:06:29;;;;;;;52.07;49.57;;;;;;;;;;4196568;28;20131;-63
2024/01/30 07:08:31;;;;;;;54.20;51.30;;;;;;;;;;4199854;28;20037;-63
2024/01/30 07:10:33;;;;;;;53.90;51.03;;;;;;;;;;4198396;28;20044;-63
2024/01/30 07:12:34;;;;;;;52.13;49.58;;;;;;;;;;4199571;28;20041;-63
2024/01/30 07:14:36;;;;;;;48.97;46.87;;;;;;;;;;4199746;28;20037;-63
2024/01/30 07:16:38;;;;;;;49.38;47.08;;;;;;;;;;4199449;28;20287;-63
2024/01/30 07:18:40;;;;;;;49.50;46.90;;;;;;;;;;4199655;28;20040;-63
2024/01/30 07:20:51;;;;;;;53.60;50.97;;;;;;;;;;4199740;28;20040;-63
2024/01/30 07:22:52;;;;;;;52.17;49.35;;;;;;;;;;4199732;28;20119;-63
2024/01/30 07:24:54;;;;;;;52.13;49.63;;;;;;;;;;4199487;28;20501;-63
2024/01/30 07:26:56;;;;;;;51.87;49.03;;;;;;;;;;4199389;28;20044;-63
2024/01/30 07:28:59;;;;;;;56.72;53.22;;;;;;;;;;4199362;28;20032;-63
2024/01/30 07:31:01;;;;;;;55.22;52.10;;;;;;;;;;4198074;28;20043;-63
2024/01/30 07:33:03;;;;;;;54.25;51.45;;;;;;;;;;4199342;28;20044;-63
2024/01/30 07:35:05;;;;;;;56.28;53.25;;;;;;;;;;4199556;28;20055;-63
2024/01/30 07:37:10;;;;;;;50.25;47.85;;;;;;;;;;4199267;28;20045;-63
2024/01/30 07:39:12;;;;;;;51.45;49.15;;;;;;;;;;4199142;28;20528;-63
2024/01/30 07:41:13;;;;;;;51.35;49.15;;;;;;;;;;4199465;28;20044;-63
2024/01/30 07:43:15;;;;;;;49.20;47.35;;;;;;;;;;4199446;28;20048;-63
2024/01/30 07:45:22;;;;;;;50.53;48.23;;;;;;;;;;4199518;28;20037;-62
2024/01/30 07:47:23;;;;;;;54.22;51.47;;;;;;;;;;4213470;28;20301;-63
2024/01/30 07:49:25;;;;;;;59.60;55.80;;;;;;;;;;4215454;28;20052;-63
2024/01/30 07:51:29;;;;;;;64.80;60.13;;;;;;;;;;4216029;28;20040;-63
2024/01/30 07:53:30;;;;;;;59.17;55.67;;;;;;;;;;4215895;28;20043;-62
2024/01/30 07:55:32;;;;;;;53.95;51.15;;;;;;;;;;4215854;28;20532;-63
2024/01/30 07:57:34;;;;;;;58.08;54.60;;;;;;;;;;4209795;28;20313;-63
2024/01/30 07:59:36;;;;;;;53.72;51.05;;;;;;;;;;4198813;28;20044;-63
2024/01/30 08:01:38;;;;;;;50.75;48.55;;;;;;;;;;4199038;28;20573;-63
2024/01/30 08:03:41;;;;;;;52.72;49.30;;;;;;;;;;4199226;28;20045;-63
2024/01/30 08:05:43;;;;;;;47.53;45.10;;;;;;;;;;4197594;28;20478;-63
2024/01/30 08:07:45;;;;;;;49.22;46.72;;;;;;;;;;4199032;28;20539;-63
2024/01/30 08:09:47;;;;;;;52.05;48.92;;;;;;;;;;4198902;28;20469;-63
2024/01/30 08:11:49;;;;;;;46.30;44.50;;;;;;;;;;4197651;28;20045;-63
2024/01/30 08:13:51;;;;;;;43.77;42.03;;;;;;;;;;4198725;28;20090;-63
2024/01/30 08:15:53;;;;;;;45.83;43.80;;;;;;;;;;4198729;28;20786;-63
2024/01/30 08:17:57;;;;;;;47.90;45.75;;;;;;;;;;4198759;28;20044;-63
2024/01/30 08:19:59;;;;;;;45.90;44.10;;;;;;;;;;4196769;28;20106;-62
2024/01/30 08:22:02;;;;;;;52.78;49.15;;;;;;;;;;4198932;28;20075;-63
2024/01/30 08:24:04;;;;;;;64.23;57.70;;;;;;;;;;4198488;28;20049;-62
2024/01/30 08:26:06;;;;;;;63.90;58.03;;;;;;;;;;4198375;28;20060;-63
2024/01/30 08:28:07;;;;;;;57.33;52.67;;;;;;;;;;4198466;28;20043;-62
2024/01/30 08:30:09;;;;;;;50.20;47.15;;;;;;;;;;4198692;28;20616;-63
2024/01/30 08:32:11;;;;;;;47.73;45.37;;;;;;;;;;4198398;28;20037;-62
2024/01/30 08:34:13;;;;;;;59.78;55.33;;;;;;;;;;4198462;28;20068;-62
2024/01/30 08:36:15;;;;;;;66.43;61.17;;;;;;;;;;4198461;28;20083;-63
2024/01/30 08:38:17;;;;;;;70.25;64.28;;;;;;;;;;4198169;28;20084;-63
2024/01/30 08:40:19;;;;;;;66.17;61.10;;;;;;;;;;4198304;28;20040;-63
2024/01/30 08:42:22;;;;;;;60.05;55.17;;;;;;;;;;4198394;28;20033;-63
2024/01/30 08:44:25;;;;;;;56.88;53.45;;;;;;;;;;4198494;28;20041;-62
2024/01/30 08:46:26;;;;;;;56.70;52.72;;;;;;;;;;4204419;28;20399;-62
2024/01/30 08:48:28;;;;;;;57.55;53.35;;;;;;;;;;4214904;28;20036;-62
2024/01/30 08:50:30;;;;;;;55.22;51.88;;;;;;;;;;4213315;28;20040;-62
2024/01/30 08:52:33;;;;;;;50.90;48.10;;;;;;;;;;4214971;28;20036;-62
2024/01/30 08:54:35;;;;;;;52.70;49.38;;;;;;;;;;4202981;28;20086;-62
2024/01/30 08:56:37;;;;;;;54.08;50.60;;;;;;;;;;4197854;28;20049;-63
2024/01/30 08:58:39;;;;;;;48.50;45.80;;;;;;;;;;4212744;28;20484;-62
2024/01/30 09:00:40;;;;;;;55.22;51.55;;;;;;;;;;4196619;28;20132;-63
2024/01/30 09:02:42;;;;;;;57.30;52.55;;;;;;;;;;4214526;28;20047;-62
2024/01/30 09:04:44;;;;;;;61.70;56.97;;;;;;;;;;4213606;28;20496;-60
2024/01/30 09:06:46;;;;;;;60.60;55.77;;;;;;;;;;4214512;28;20393;-60
2024/01/30 09:08:48;;;;;;;59.50;55.22;;;;;;;;;;4214574;28;20519;-60
2024/01/30 09:10:50;;;;;;;60.10;55.60;;;;;;;;;;4214357;28;20043;-60
2024/01/30 09:12:51;;;;;;;57.13;53.08;;;;;;;;;;4214494;28;20541;-60
2024/01/30 09:14:53;;;;;;;59.92;55.58;;;;;;;;;;4213456;28;20040;-60
2024/01/30 09:16:55;;;;;;;52.65;48.88;;;;;;;;;;4214442;28;20067;-61
2024/01/30 09:18:56;;;;;;;55.03;51.38;;;;;;;;;;4214445;28;20051;-60
2024/01/30 09:20:58;;;;;;;53.03;49.17;;;;;;;;;;4214607;28;20470;-59
2024/01/30 09:23:03;;;;;;;59.60;53.92;;;;;;;;;;4214539;28;20093;-60
2024/01/30 09:25:05;;;;;;;63.10;57.45;;;;;;;;;;4214259;28;20044;-60
2024/01/30 09:27:06;;;;;;;58.80;54.28;;;;;;;;;;4214178;28;20040;-61
2024/01/30 09:29:08;;;;;;;50.90;47.53;;;;;;;;;;4214195;28;20044;-60
2024/01/30 09:31:10;;;;;;;52.85;48.55;;;;;;;;;;4214282;28;20048;-60
2024/01/30 09:33:12;;;;;;;55.60;51.38;;;;;;;;;;4214581;28;20064;-60
2024/01/30 09:35:13;;;;;;;55.20;51.85;;;;;;;;;;4214094;28;20044;-61
2024/01/30 09:37:17;;;;;;;46.17;42.95;;;;;;;;;;4214265;28;20044;-60
2024/01/30 09:39:20;;;;;;;42.70;40.35;;;;;;;;;;4212837;28;20135;-60
2024/01/30 09:41:23;;;;;;;40.75;38.95;;;;;;;;;;4214375;28;20046;-60
2024/01/30 09:43:29;;;;;;;45.78;42.78;;;;;;;;;;4213783;28;20040;-61
2024/01/30 09:45:32;;;;;;;42.28;40.13;;;;;;;;;;4214119;28;20036;-61
2024/01/30 09:47:38;;;;;;;42.17;40.08;;;;;;;;;;4213969;28;20106;-60
2024/01/30 09:49:42;;;;;;;43.33;40.92;;;;;;;;;;4211377;28;20051;-60
2024/01/30 09:51:43;;;;;;;;;;;;;;;;;;4196264;28;20048;-60
2024/01/30 09:53:45;;;;;;;40.63;38.80;;;;;;;;;;4197207;28;19987;-60
2024/01/30 09:55:47;;;;;;;40.50;38.45;;;;;;;;;;4196189;28;20036;-60
2024/01/30 09:57:48;;;;;;;41.20;38.67;;;;;;;;;;4204626;28;20119;-60
2024/01/30 09:59:51;;;;;;;52.38;47.30;;;;;;;;;;4213840;28;20093;-60
2024/01/30 10:01:53;;;;;;;172.77;88.10;;;;;;;;;;4213877;28;20040;-60
2024/01/30 10:03:55;;;;;;;66.53;56.72;;;;;;;;;;4213599;28;20056;-60
2024/01/30 10:05:57;;;;;;;46.15;43.30;;;;;;;;;;4213838;28;20052;-60
2024/01/30 10:07:59;;;;;;;42.28;40.28;;;;;;;;;;4212498;28;20407;-60
2024/01/30 10:10:01;;;;;;;44.50;41.05;;;;;;;;;;4213759;28;20042;-60
2024/01/30 10:12:03;;;;;;;39.27;37.00;;;;;;;;;;4213737;28;20047;-60
2024/01/30 10:14:05;;;;;;;;;;;;;;;;;;4214432;28;20047;-60
2024/01/30 10:16:06;;;;;;;41.60;39.28;;;;;;;;;;4213951;28;20018;-60
2024/01/30 10:18:09;;;;;;;39.33;37.30;;;;;;;;;;4213913;28;20049;-60
2024/01/30 10:20:11;;;;;;;39.75;37.38;;;;;;;;;;4213328;28;20849;-60
2024/01/30 10:22:13;;;;;;;38.60;36.67;;;;;;;;;;4213840;28;20480;-60
2024/01/30 10:24:16;;;;;;;37.88;35.88;;;;;;;;;;4213541;28;20036;-60
2024/01/30 10:26:18;;;;;;;40.67;38.50;;;;;;;;;;4213583;28;20044;-60
2024/01/30 10:28:21;;;;;;;40.65;38.00;;;;;;;;;;4213563;28;20470;-60
2024/01/30 10:30:23;;;;;;;38.30;36.40;;;;;;;;;;4213502;28;20086;-60
2024/01/30 10:32:25;;;;;;;38.03;36.33;;;;;;;;;;4212351;28;20044;-60
2024/01/30 10:34:27;;;;;;;37.92;35.92;;;;;;;;;;4213583;28;20040;-60
2024/01/30 10:36:30;;;;;;;35.83;34.03;;;;;;;;;;4213473;28;20048;-59
2024/01/30 10:38:32;;;;;;;34.45;32.88;;;;;;;;;;4213103;28;20471;-60
2024/01/30 10:40:35;;;;;;;34.25;32.70;;;;;;;;;;4213322;28;20040;-60
2024/01/30 10:42:37;;;;;;;;;;;;;;;;;;4215662;28;20048;-60
2024/01/30 10:44:55;;;;;;;36.78;34.58;;;;;;;;;;4215827;28;19928;-60
2024/01/30 10:47:00;;;;;;;35.70;33.85;;;;;;;;;;4206056;28;20500;-60
2024/01/30 10:49:02;;;;;;;36.50;34.42;;;;;;;;;;4200037;28;20543;-60
2024/01/30 10:51:05;;;;;;;33.80;32.05;;;;;;;;;;4199725;28;20036;-60
2024/01/30 10:53:07;;;;;;;31.40;29.70;;;;;;;;;;4200087;28;20068;-59
2024/01/30 10:55:09;;;;;;;27.25;25.52;;;;;;;;;;4200193;28;20550;-60
2024/01/30 10:57:12;;;;;;;26.05;24.30;;;;;;;;;;4202021;28;20051;-60
2024/01/30 10:59:14;;;;;;;23.40;21.98;;;;;;;;;;4216860;28;20369;-60
2024/01/30 11:01:16;;;;;;;38.55;32.33;;;;;;;;;;4215621;28;20040;-60
2024/01/30 11:03:18;;;;;;;34.47;31.40;;;;;;;;;;4216568;28;20047;-60
2024/01/30 11:05:24;;;;;;;36.53;33.03;;;;;;;;;;4216582;28;20043;-60
2024/01/30 11:07:28;;;;;;;40.03;36.17;;;;;;;;;;4216435;28;20044;-60
2024/01/30 11:09:30;;;;;;;37.95;35.00;;;;;;;;;;4216418;28;20043;-60
2024/01/30 11:11:32;;;;;;;30.50;28.23;;;;;;;;;;4216387;28;20040;-60
2024/01/30 11:13:34;;;;;;;20.27;19.37;;;;;;;;;;4216344;28;20716;-60
2024/01/30 11:15:37;;;;;;;19.00;18.05;;;;;;;;;;4216428;28;20511;-61
2024/01/30 11:17:40;;;;;;;15.52;15.10;;;;;;;;;;4216260;28;20146;-60
2024/01/30 11:19:42;;;;;;;15.10;14.30;;;;;;;;;;4214186;28;20040;-61
2024/01/30 11:21:44;;;;;;;15.10;14.65;;;;;;;;;;4215089;28;20148;-61
2024/01/30 11:23:45;;;;;;;14.00;13.57;;;;;;;;;;4210060;28;20044;-60
2024/01/30 11:25:47;;;;;;;11.13;10.93;;;;;;;;;;4200134;28;20051;-60
2024/01/30 11:27:50;;;;;;;13.00;12.40;;;;;;;;;;4199200;28;20287;-60
2024/01/30 11:29:52;;;;;;;14.00;13.38;;;;;;;;;;4199551;28;20040;-60
2024/01/30 11:31:54;;;;;;;13.15;12.63;;;;;;;;;;4199272;28;20492;-62
2024/01/30 11:33:57;;;;;;;13.65;13.38;;;;;;;;;;4209182;28;20043;-60
2024/01/30 11:35:59;;;;;;;;;;;;;;;;;;4202303;28;20039;-60
2024/01/30 11:38:01;;;;;;;12.32;11.98;;;;;;;;;;4207785;28;20023;-60
2024/01/30 11:40:04;;;;;;;15.38;14.82;;;;;;;;;;4205746;28;20070;-61
2024/01/30 11:42:08;;;;;;;13.07;12.73;;;;;;;;;;4203218;28;20098;-60
2024/01/30 11:44:10;;;;;;;14.15;13.73;;;;;;;;;;4199191;28;20045;-61
2024/01/30 11:46:12;;;;;;;14.23;13.83;;;;;;;;;;4202328;28;20544;-60
2024/01/30 11:48:16;;;;;;;14.10;13.85;;;;;;;;;;4215629;28;20135;-60
2024/01/30 11:50:18;;;;;;;13.80;13.57;;;;;;;;;;4214308;28;20036;-60
2024/01/30 11:52:20;;;;;;;12.80;12.55;;;;;;;;;;4207439;28;20055;-61
2024/01/30 11:54:22;;;;;;;13.27;13.07;;;;;;;;;;4204610;28;20504;-61